sensor_id;sensor_type;location;lat;lon;timestamp;P1;durP1;ratioP1;P2;durP2;ratioP2
60100;SDS011;45978;53.646;55.930;2022-09-09T00:00:38;7.85;;;7.05;;
60100;SDS011;45978;53.646;55.930;2022-09-09T00:02:47;7.63;;;6.85;;
60100;SDS011;45978;53.646;55.930;2022-09-09T00:03:31;9.07;;;6.35;;
60100;SDS011;45978;53.646;55.930;2022-09-09T00:05:04;8.23;;;6.57;;
60100;SDS011;45978;53.646;55.930;2022-09-09T00:07:50;10.55;;;6.05;;
60100;SDS011;45978;53.646;55.930;2022-09-09T00:09:04;7.30;;;6.35;;
60100;SDS011;45978;53.646;55.930;2022-09-09T00:10:29;6.63;;;6.00;;
60100;SDS011;45978;53.646;55.930;2022-09-09T00:11:41;7.10;;;6.38;;
60100;SDS011;45978;53.646;55.930;2022-09-09T00:13:34;6.38;;;5.88;;
60100;SDS011;45978;53.646;55.930;2022-09-09T00:17:14;7.68;;;6.28;;
60100;SDS011;45978;53.646;55.930;2022-09-09T00:19:32;7.75;;;6.88;;
60100;SDS011;45978;53.646;55.930;2022-09-09T00:21:07;7.07;;;6.18;;
60100;SDS011;45978;53.646;55.930;2022-09-09T00:22:24;10.13;;;6.80;;
60100;SDS011;45978;53.646;55.930;2022-09-09T00:23:29;6.80;;;6.25;;
60100;SDS011;45978;53.646;55.930;2022-09-09T00:24:40;9.30;;;6.45;;
60100;SDS011;45978;53.646;55.930;2022-09-09T00:25:53;7.43;;;6.82;;
60100;SDS011;45978;53.646;55.930;2022-09-09T00:27:25;15.93;;;6.70;;
60100;SDS011;45978;53.646;55.930;2022-09-09T00:28:48;8.80;;;6.53;;
60100;SDS011;45978;53.646;55.930;2022-09-09T00:30:00;6.60;;;5.97;;
60100;SDS011;45978;53.646;55.930;2022-09-09T00:31:23;8.43;;;6.32;;
60100;SDS011;45978;53.646;55.930;2022-09-09T00:32:29;8.55;;;6.55;;
60100;SDS011;45978;53.646;55.930;2022-09-09T00:33:31;8.13;;;6.53;;
60100;SDS011;45978;53.646;55.930;2022-09-09T00:34:35;10.20;;;7.43;;
60100;SDS011;45978;53.646;55.930;2022-09-09T00:35:44;7.72;;;6.38;;
60100;SDS011;45978;53.646;55.930;2022-09-09T00:36:52;7.03;;;6.32;;
60100;SDS011;45978;53.646;55.930;2022-09-09T00:37:57;9.98;;;6.70;;
60100;SDS011;45978;53.646;55.930;2022-09-09T00:39:14;8.75;;;6.00;;
60100;SDS011;45978;53.646;55.930;2022-09-09T00:40:50;6.40;;;5.47;;
60100;SDS011;45978;53.646;55.930;2022-09-09T00:42:33;6.60;;;6.00;;
60100;SDS011;45978;53.646;55.930;2022-09-09T00:43:39;9.55;;;5.82;;
60100;SDS011;45978;53.646;55.930;2022-09-09T00:44:51;7.43;;;5.93;;
60100;SDS011;45978;53.646;55.930;2022-09-09T00:49:22;11.32;;;6.13;;
60100;SDS011;45978;53.646;55.930;2022-09-09T00:52:03;13.02;;;6.70;;
60100;SDS011;45978;53.646;55.930;2022-09-09T00:53:29;8.10;;;6.72;;
60100;SDS011;45978;53.646;55.930;2022-09-09T00:54:48;7.38;;;6.25;;
60100;SDS011;45978;53.646;55.930;2022-09-09T00:56:16;10.90;;;6.53;;
60100;SDS011;45978;53.646;55.930;2022-09-09T00:57:26;6.35;;;5.72;;
60100;SDS011;45978;53.646;55.930;2022-09-09T00:58:28;8.00;;;6.18;;
60100;SDS011;45978;53.646;55.930;2022-09-09T00:59:43;13.95;;;6.80;;
60100;SDS011;45978;53.646;55.930;2022-09-09T01:01:02;6.82;;;6.07;;
60100;SDS011;45978;53.646;55.930;2022-09-09T01:02:18;6.65;;;6.03;;
60100;SDS011;45978;53.646;55.930;2022-09-09T01:03:35;6.55;;;5.38;;
60100;SDS011;45978;53.646;55.930;2022-09-09T01:04:40;8.13;;;5.80;;
60100;SDS011;45978;53.646;55.930;2022-09-09T01:05:45;9.98;;;6.25;;
60100;SDS011;45978;53.646;55.930;2022-09-09T01:07:01;9.07;;;6.30;;
60100;SDS011;45978;53.646;55.930;2022-09-09T01:08:26;7.55;;;5.88;;
60100;SDS011;45978;53.646;55.930;2022-09-09T01:10:14;6.97;;;6.28;;
60100;SDS011;45978;53.646;55.930;2022-09-09T01:11:26;8.18;;;6.15;;
60100;SDS011;45978;53.646;55.930;2022-09-09T01:12:41;13.60;;;6.25;;
60100;SDS011;45978;53.646;55.930;2022-09-09T01:13:55;11.25;;;5.40;;
60100;SDS011;45978;53.646;55.930;2022-09-09T01:15:11;5.47;;;4.95;;
60100;SDS011;45978;53.646;55.930;2022-09-09T01:16:26;6.07;;;5.57;;
60100;SDS011;45978;53.646;55.930;2022-09-09T01:17:34;9.95;;;5.50;;
60100;SDS011;45978;53.646;55.930;2022-09-09T01:18:48;5.63;;;5.13;;
60100;SDS011;45978;53.646;55.930;2022-09-09T01:21:35;5.38;;;4.95;;
60100;SDS011;45978;53.646;55.930;2022-09-09T01:23:14;8.35;;;5.55;;
60100;SDS011;45978;53.646;55.930;2022-09-09T01:26:51;6.55;;;5.50;;
60100;SDS011;45978;53.646;55.930;2022-09-09T01:28:01;8.02;;;5.65;;
60100;SDS011;45978;53.646;55.930;2022-09-09T01:29:12;9.15;;;5.78;;
60100;SDS011;45978;53.646;55.930;2022-09-09T01:30:25;7.97;;;5.63;;
60100;SDS011;45978;53.646;55.930;2022-09-09T01:31:33;6.45;;;5.72;;
60100;SDS011;45978;53.646;55.930;2022-09-09T01:32:48;8.57;;;5.30;;
60100;SDS011;45978;53.646;55.930;2022-09-09T01:33:53;7.15;;;5.65;;
60100;SDS011;45978;53.646;55.930;2022-09-09T01:34:57;6.30;;;5.60;;
60100;SDS011;45978;53.646;55.930;2022-09-09T01:36:12;6.15;;;5.63;;
60100;SDS011;45978;53.646;55.930;2022-09-09T01:37:24;6.22;;;5.60;;
60100;SDS011;45978;53.646;55.930;2022-09-09T01:38:27;6.35;;;5.05;;
60100;SDS011;45978;53.646;55.930;2022-09-09T01:39:33;8.85;;;5.45;;
60100;SDS011;45978;53.646;55.930;2022-09-09T01:40:42;6.88;;;6.18;;
60100;SDS011;45978;53.646;55.930;2022-09-09T01:41:49;5.78;;;5.28;;
60100;SDS011;45978;53.646;55.930;2022-09-09T01:42:53;7.90;;;5.82;;
60100;SDS011;45978;53.646;55.930;2022-09-09T01:44:02;8.20;;;5.82;;
60100;SDS011;45978;53.646;55.930;2022-09-09T01:45:12;6.18;;;5.55;;
60100;SDS011;45978;53.646;55.930;2022-09-09T01:46:15;6.05;;;5.50;;
60100;SDS011;45978;53.646;55.930;2022-09-09T01:47:18;7.22;;;5.10;;
60100;SDS011;45978;53.646;55.930;2022-09-09T01:48:52;6.20;;;5.10;;
60100;SDS011;45978;53.646;55.930;2022-09-09T01:49:56;5.93;;;5.32;;
60100;SDS011;45978;53.646;55.930;2022-09-09T01:51:01;7.47;;;5.45;;
60100;SDS011;45978;53.646;55.930;2022-09-09T01:52:03;8.40;;;6.03;;
60100;SDS011;45978;53.646;55.930;2022-09-09T01:53:09;7.80;;;5.32;;
60100;SDS011;45978;53.646;55.930;2022-09-09T01:54:12;6.47;;;5.47;;
60100;SDS011;45978;53.646;55.930;2022-09-09T01:55:15;6.75;;;5.97;;
60100;SDS011;45978;53.646;55.930;2022-09-09T01:58:02;6.75;;;5.45;;
60100;SDS011;45978;53.646;55.930;2022-09-09T02:00:31;9.23;;;5.43;;
60100;SDS011;45978;53.646;55.930;2022-09-09T02:02:48;6.32;;;4.93;;
60100;SDS011;45978;53.646;55.930;2022-09-09T02:03:57;6.10;;;5.18;;
60100;SDS011;45978;53.646;55.930;2022-09-09T02:06:51;5.97;;;5.13;;
60100;SDS011;45978;53.646;55.930;2022-09-09T02:08:25;5.35;;;4.50;;
60100;SDS011;45978;53.646;55.930;2022-09-09T02:09:36;5.30;;;4.72;;
60100;SDS011;45978;53.646;55.930;2022-09-09T02:10:46;5.65;;;4.95;;
60100;SDS011;45978;53.646;55.930;2022-09-09T02:12:08;10.35;;;5.30;;
60100;SDS011;45978;53.646;55.930;2022-09-09T02:13:23;5.78;;;5.18;;
60100;SDS011;45978;53.646;55.930;2022-09-09T02:14:30;7.22;;;5.03;;
60100;SDS011;45978;53.646;55.930;2022-09-09T02:17:11;5.68;;;5.15;;
60100;SDS011;45978;53.646;55.930;2022-09-09T02:20:21;6.18;;;4.63;;
60100;SDS011;45978;53.646;55.930;2022-09-09T02:21:32;5.07;;;4.65;;
60100;SDS011;45978;53.646;55.930;2022-09-09T02:22:37;4.50;;;4.15;;
60100;SDS011;45978;53.646;55.930;2022-09-09T02:23:41;4.57;;;4.28;;
60100;SDS011;45978;53.646;55.930;2022-09-09T02:24:46;8.32;;;4.53;;
60100;SDS011;45978;53.646;55.930;2022-09-09T02:25:58;4.68;;;4.30;;
60100;SDS011;45978;53.646;55.930;2022-09-09T02:27:01;4.35;;;3.83;;
60100;SDS011;45978;53.646;55.930;2022-09-09T02:28:07;6.57;;;3.70;;
60100;SDS011;45978;53.646;55.930;2022-09-09T02:29:22;4.18;;;3.83;;
60100;SDS011;45978;53.646;55.930;2022-09-09T02:30:28;6.82;;;3.28;;
60100;SDS011;45978;53.646;55.930;2022-09-09T02:31:35;4.30;;;3.35;;
60100;SDS011;45978;53.646;55.930;2022-09-09T02:32:42;4.13;;;3.13;;
60100;SDS011;45978;53.646;55.930;2022-09-09T02:33:52;6.20;;;3.17;;
60100;SDS011;45978;53.646;55.930;2022-09-09T02:35:03;3.45;;;3.13;;
60100;SDS011;45978;53.646;55.930;2022-09-09T02:36:13;3.17;;;2.97;;
60100;SDS011;45978;53.646;55.930;2022-09-09T02:37:19;3.30;;;3.00;;
60100;SDS011;45978;53.646;55.930;2022-09-09T02:38:35;8.82;;;3.65;;
60100;SDS011;45978;53.646;55.930;2022-09-09T02:39:43;3.17;;;2.97;;
60100;SDS011;45978;53.646;55.930;2022-09-09T02:40:51;7.95;;;4.95;;
60100;SDS011;45978;53.646;55.930;2022-09-09T02:41:56;5.60;;;3.70;;
60100;SDS011;45978;53.646;55.930;2022-09-09T02:43:04;4.30;;;3.70;;
60100;SDS011;45978;53.646;55.930;2022-09-09T02:44:11;4.22;;;3.60;;
60100;SDS011;45978;53.646;55.930;2022-09-09T02:45:24;5.38;;;4.00;;
60100;SDS011;45978;53.646;55.930;2022-09-09T02:46:52;5.95;;;3.72;;
60100;SDS011;45978;53.646;55.930;2022-09-09T02:52:06;4.07;;;3.50;;
60100;SDS011;45978;53.646;55.930;2022-09-09T02:53:18;3.38;;;3.08;;
60100;SDS011;45978;53.646;55.930;2022-09-09T02:54:28;3.88;;;3.25;;
60100;SDS011;45978;53.646;55.930;2022-09-09T02:55:41;5.82;;;3.67;;
60100;SDS011;45978;53.646;55.930;2022-09-09T02:56:59;3.22;;;3.00;;
60100;SDS011;45978;53.646;55.930;2022-09-09T02:58:12;5.85;;;3.55;;
60100;SDS011;45978;53.646;55.930;2022-09-09T02:59:28;6.32;;;3.85;;
60100;SDS011;45978;53.646;55.930;2022-09-09T03:00:31;3.78;;;3.42;;
60100;SDS011;45978;53.646;55.930;2022-09-09T03:01:35;4.30;;;3.25;;
60100;SDS011;45978;53.646;55.930;2022-09-09T03:02:38;5.35;;;3.20;;
60100;SDS011;45978;53.646;55.930;2022-09-09T03:03:42;4.68;;;3.00;;
60100;SDS011;45978;53.646;55.930;2022-09-09T03:04:49;7.18;;;2.88;;
60100;SDS011;45978;53.646;55.930;2022-09-09T03:05:55;5.07;;;3.30;;
60100;SDS011;45978;53.646;55.930;2022-09-09T03:06:58;4.57;;;3.13;;
60100;SDS011;45978;53.646;55.930;2022-09-09T03:08:00;3.05;;;2.58;;
60100;SDS011;45978;53.646;55.930;2022-09-09T03:09:01;4.22;;;3.33;;
60100;SDS011;45978;53.646;55.930;2022-09-09T03:10:04;4.15;;;2.75;;
60100;SDS011;45978;53.646;55.930;2022-09-09T03:11:06;5.25;;;3.55;;
60100;SDS011;45978;53.646;55.930;2022-09-09T03:12:11;3.03;;;2.83;;
60100;SDS011;45978;53.646;55.930;2022-09-09T03:13:13;5.38;;;3.13;;
60100;SDS011;45978;53.646;55.930;2022-09-09T03:14:16;5.60;;;2.88;;
60100;SDS011;45978;53.646;55.930;2022-09-09T03:15:22;3.50;;;2.80;;
60100;SDS011;45978;53.646;55.930;2022-09-09T03:16:24;6.20;;;3.00;;
60100;SDS011;45978;53.646;55.930;2022-09-09T03:17:28;5.60;;;2.72;;
60100;SDS011;45978;53.646;55.930;2022-09-09T03:18:31;4.45;;;2.90;;
60100;SDS011;45978;53.646;55.930;2022-09-09T03:19:33;3.85;;;3.00;;
60100;SDS011;45978;53.646;55.930;2022-09-09T03:20:36;3.58;;;2.40;;
60100;SDS011;45978;53.646;55.930;2022-09-09T03:21:37;3.13;;;2.83;;
60100;SDS011;45978;53.646;55.930;2022-09-09T03:22:40;2.67;;;2.47;;
60100;SDS011;45978;53.646;55.930;2022-09-09T03:23:41;2.47;;;2.28;;
60100;SDS011;45978;53.646;55.930;2022-09-09T03:24:43;2.33;;;2.10;;
60100;SDS011;45978;53.646;55.930;2022-09-09T03:25:48;7.38;;;2.45;;
60100;SDS011;45978;53.646;55.930;2022-09-09T03:27:02;2.83;;;2.63;;
60100;SDS011;45978;53.646;55.930;2022-09-09T03:28:13;3.95;;;2.42;;
60100;SDS011;45978;53.646;55.930;2022-09-09T03:29:17;2.55;;;2.30;;
60100;SDS011;45978;53.646;55.930;2022-09-09T03:30:20;5.55;;;3.10;;
60100;SDS011;45978;53.646;55.930;2022-09-09T03:31:23;4.80;;;2.72;;
60100;SDS011;45978;53.646;55.930;2022-09-09T03:32:25;3.20;;;2.90;;
60100;SDS011;45978;53.646;55.930;2022-09-09T03:33:28;4.43;;;2.70;;
60100;SDS011;45978;53.646;55.930;2022-09-09T03:34:31;2.55;;;2.35;;
60100;SDS011;45978;53.646;55.930;2022-09-09T03:35:33;3.58;;;2.60;;
60100;SDS011;45978;53.646;55.930;2022-09-09T03:36:35;3.38;;;2.55;;
60100;SDS011;45978;53.646;55.930;2022-09-09T03:37:39;2.30;;;2.20;;
60100;SDS011;45978;53.646;55.930;2022-09-09T03:38:42;3.42;;;2.72;;
60100;SDS011;45978;53.646;55.930;2022-09-09T03:39:48;4.05;;;2.72;;
60100;SDS011;45978;53.646;55.930;2022-09-09T03:40:51;3.13;;;2.83;;
60100;SDS011;45978;53.646;55.930;2022-09-09T03:41:58;3.78;;;2.50;;
60100;SDS011;45978;53.646;55.930;2022-09-09T03:43:00;2.78;;;2.58;;
60100;SDS011;45978;53.646;55.930;2022-09-09T03:44:03;3.10;;;2.90;;
60100;SDS011;45978;53.646;55.930;2022-09-09T03:45:10;2.65;;;2.45;;
60100;SDS011;45978;53.646;55.930;2022-09-09T03:46:14;2.67;;;2.47;;
60100;SDS011;45978;53.646;55.930;2022-09-09T03:47:19;2.47;;;2.28;;
60100;SDS011;45978;53.646;55.930;2022-09-09T03:48:29;4.53;;;2.38;;
60100;SDS011;45978;53.646;55.930;2022-09-09T03:49:33;2.20;;;2.10;;
60100;SDS011;45978;53.646;55.930;2022-09-09T03:50:36;2.80;;;2.60;;
60100;SDS011;45978;53.646;55.930;2022-09-09T03:51:38;2.75;;;2.33;;
60100;SDS011;45978;53.646;55.930;2022-09-09T03:52:41;4.13;;;2.53;;
60100;SDS011;45978;53.646;55.930;2022-09-09T03:53:49;2.65;;;2.45;;
60100;SDS011;45978;53.646;55.930;2022-09-09T03:54:51;2.50;;;2.30;;
60100;SDS011;45978;53.646;55.930;2022-09-09T03:55:55;3.00;;;2.38;;
60100;SDS011;45978;53.646;55.930;2022-09-09T03:57:01;3.58;;;2.40;;
60100;SDS011;45978;53.646;55.930;2022-09-09T03:58:03;3.30;;;2.33;;
60100;SDS011;45978;53.646;55.930;2022-09-09T03:59:04;2.72;;;2.50;;
60100;SDS011;45978;53.646;55.930;2022-09-09T04:00:06;3.00;;;2.70;;
60100;SDS011;45978;53.646;55.930;2022-09-09T04:01:19;2.92;;;2.45;;
60100;SDS011;45978;53.646;55.930;2022-09-09T04:02:23;3.38;;;2.53;;
60100;SDS011;45978;53.646;55.930;2022-09-09T04:03:27;2.72;;;2.53;;
60100;SDS011;45978;53.646;55.930;2022-09-09T04:04:33;3.35;;;2.75;;
60100;SDS011;45978;53.646;55.930;2022-09-09T04:05:36;4.15;;;2.97;;
60100;SDS011;45978;53.646;55.930;2022-09-09T04:06:45;3.85;;;2.90;;
60100;SDS011;45978;53.646;55.930;2022-09-09T04:07:51;3.50;;;3.20;;
60100;SDS011;45978;53.646;55.930;2022-09-09T04:08:53;3.58;;;2.97;;
60100;SDS011;45978;53.646;55.930;2022-09-09T04:09:55;3.40;;;3.05;;
60100;SDS011;45978;53.646;55.930;2022-09-09T04:11:00;4.25;;;2.80;;
60100;SDS011;45978;53.646;55.930;2022-09-09T04:12:05;4.13;;;2.92;;
60100;SDS011;45978;53.646;55.930;2022-09-09T04:13:08;6.07;;;3.10;;
60100;SDS011;45978;53.646;55.930;2022-09-09T04:14:09;3.53;;;3.20;;
60100;SDS011;45978;53.646;55.930;2022-09-09T04:15:11;5.05;;;3.80;;
60100;SDS011;45978;53.646;55.930;2022-09-09T04:16:13;4.50;;;2.70;;
60100;SDS011;45978;53.646;55.930;2022-09-09T04:17:17;4.47;;;2.80;;
60100;SDS011;45978;53.646;55.930;2022-09-09T04:18:24;3.55;;;2.45;;
60100;SDS011;45978;53.646;55.930;2022-09-09T04:19:27;6.45;;;2.63;;
60100;SDS011;45978;53.646;55.930;2022-09-09T04:20:32;2.47;;;2.25;;
60100;SDS011;45978;53.646;55.930;2022-09-09T04:21:33;3.15;;;2.88;;
60100;SDS011;45978;53.646;55.930;2022-09-09T04:22:36;3.05;;;2.78;;
60100;SDS011;45978;53.646;55.930;2022-09-09T04:23:40;4.80;;;2.78;;
60100;SDS011;45978;53.646;55.930;2022-09-09T04:24:42;6.22;;;2.72;;
60100;SDS011;45978;53.646;55.930;2022-09-09T04:25:45;6.60;;;2.67;;
60100;SDS011;45978;53.646;55.930;2022-09-09T04:26:50;6.32;;;2.95;;
60100;SDS011;45978;53.646;55.930;2022-09-09T04:27:54;3.55;;;3.17;;
60100;SDS011;45978;53.646;55.930;2022-09-09T04:28:57;6.68;;;3.15;;
60100;SDS011;45978;53.646;55.930;2022-09-09T04:29:58;5.40;;;2.70;;
60100;SDS011;45978;53.646;55.930;2022-09-09T04:31:04;3.15;;;2.90;;
60100;SDS011;45978;53.646;55.930;2022-09-09T04:32:09;5.97;;;3.58;;
60100;SDS011;45978;53.646;55.930;2022-09-09T04:33:11;6.40;;;2.85;;
60100;SDS011;45978;53.646;55.930;2022-09-09T04:34:13;3.38;;;2.92;;
60100;SDS011;45978;53.646;55.930;2022-09-09T04:35:15;4.30;;;3.15;;
60100;SDS011;45978;53.646;55.930;2022-09-09T04:36:17;5.07;;;3.35;;
60100;SDS011;45978;53.646;55.930;2022-09-09T04:37:20;3.47;;;3.17;;
60100;SDS011;45978;53.646;55.930;2022-09-09T04:38:22;4.07;;;3.17;;
60100;SDS011;45978;53.646;55.930;2022-09-09T04:39:24;4.20;;;2.88;;
60100;SDS011;45978;53.646;55.930;2022-09-09T04:40:27;5.63;;;3.38;;
60100;SDS011;45978;53.646;55.930;2022-09-09T04:41:30;3.97;;;3.20;;
60100;SDS011;45978;53.646;55.930;2022-09-09T04:42:35;3.33;;;3.03;;
60100;SDS011;45978;53.646;55.930;2022-09-09T04:43:38;7.43;;;3.00;;
60100;SDS011;45978;53.646;55.930;2022-09-09T04:44:42;4.20;;;3.45;;
60100;SDS011;45978;53.646;55.930;2022-09-09T04:45:49;3.63;;;3.20;;
60100;SDS011;45978;53.646;55.930;2022-09-09T04:46:57;3.72;;;2.70;;
60100;SDS011;45978;53.646;55.930;2022-09-09T04:47:59;12.05;;;4.05;;
60100;SDS011;45978;53.646;55.930;2022-09-09T04:49:01;4.80;;;3.70;;
60100;SDS011;45978;53.646;55.930;2022-09-09T04:50:07;9.52;;;3.47;;
60100;SDS011;45978;53.646;55.930;2022-09-09T04:51:11;4.30;;;3.90;;
60100;SDS011;45978;53.646;55.930;2022-09-09T04:52:14;6.88;;;3.60;;
60100;SDS011;45978;53.646;55.930;2022-09-09T04:53:19;4.05;;;3.38;;
60100;SDS011;45978;53.646;55.930;2022-09-09T04:54:26;6.05;;;3.65;;
60100;SDS011;45978;53.646;55.930;2022-09-09T04:55:29;5.32;;;3.72;;
60100;SDS011;45978;53.646;55.930;2022-09-09T04:56:31;5.95;;;3.85;;
60100;SDS011;45978;53.646;55.930;2022-09-09T04:57:35;3.63;;;3.33;;
60100;SDS011;45978;53.646;55.930;2022-09-09T04:58:39;3.85;;;3.50;;
60100;SDS011;45978;53.646;55.930;2022-09-09T04:59:44;3.97;;;3.58;;
60100;SDS011;45978;53.646;55.930;2022-09-09T05:00:46;4.13;;;3.35;;
60100;SDS011;45978;53.646;55.930;2022-09-09T05:01:50;5.38;;;3.60;;
60100;SDS011;45978;53.646;55.930;2022-09-09T05:02:51;3.95;;;3.53;;
60100;SDS011;45978;53.646;55.930;2022-09-09T05:03:52;6.18;;;3.72;;
60100;SDS011;45978;53.646;55.930;2022-09-09T05:04:59;7.72;;;4.22;;
60100;SDS011;45978;53.646;55.930;2022-09-09T05:06:05;4.90;;;3.78;;
60100;SDS011;45978;53.646;55.930;2022-09-09T05:07:11;9.55;;;3.50;;
60100;SDS011;45978;53.646;55.930;2022-09-09T05:08:14;10.30;;;3.83;;
60100;SDS011;45978;53.646;55.930;2022-09-09T05:09:18;7.32;;;4.03;;
60100;SDS011;45978;53.646;55.930;2022-09-09T05:10:20;7.07;;;4.20;;
60100;SDS011;45978;53.646;55.930;2022-09-09T05:11:24;5.38;;;3.95;;
60100;SDS011;45978;53.646;55.930;2022-09-09T05:12:32;9.70;;;4.18;;
60100;SDS011;45978;53.646;55.930;2022-09-09T05:13:33;7.88;;;5.03;;
60100;SDS011;45978;53.646;55.930;2022-09-09T05:14:35;10.50;;;4.30;;
60100;SDS011;45978;53.646;55.930;2022-09-09T05:15:38;6.50;;;4.28;;
60100;SDS011;45978;53.646;55.930;2022-09-09T05:16:40;4.13;;;3.65;;
60100;SDS011;45978;53.646;55.930;2022-09-09T05:17:42;3.92;;;2.58;;
60100;SDS011;45978;53.646;55.930;2022-09-09T05:18:44;4.45;;;3.08;;
60100;SDS011;45978;53.646;55.930;2022-09-09T05:19:49;7.25;;;2.65;;
60100;SDS011;45978;53.646;55.930;2022-09-09T05:20:51;3.45;;;2.83;;
60100;SDS011;45978;53.646;55.930;2022-09-09T05:22:15;7.80;;;2.88;;
60100;SDS011;45978;53.646;55.930;2022-09-09T05:23:19;4.22;;;2.13;;
60100;SDS011;45978;53.646;55.930;2022-09-09T05:24:20;5.40;;;2.50;;
60100;SDS011;45978;53.646;55.930;2022-09-09T05:25:28;6.30;;;2.70;;
60100;SDS011;45978;53.646;55.930;2022-09-09T05:26:32;3.53;;;2.35;;
60100;SDS011;45978;53.646;55.930;2022-09-09T05:27:36;10.38;;;3.20;;
60100;SDS011;45978;53.646;55.930;2022-09-09T05:28:39;7.93;;;3.05;;
60100;SDS011;45978;53.646;55.930;2022-09-09T05:29:42;3.38;;;3.08;;
60100;SDS011;45978;53.646;55.930;2022-09-09T05:30:46;3.00;;;2.80;;
60100;SDS011;45978;53.646;55.930;2022-09-09T05:32:07;3.35;;;2.90;;
60100;SDS011;45978;53.646;55.930;2022-09-09T05:33:11;5.47;;;3.20;;
60100;SDS011;45978;53.646;55.930;2022-09-09T05:34:12;3.17;;;2.78;;
60100;SDS011;45978;53.646;55.930;2022-09-09T05:35:14;3.50;;;3.10;;
60100;SDS011;45978;53.646;55.930;2022-09-09T05:36:17;8.05;;;3.00;;
60100;SDS011;45978;53.646;55.930;2022-09-09T05:37:23;5.10;;;3.10;;
60100;SDS011;45978;53.646;55.930;2022-09-09T05:38:27;3.88;;;3.33;;
60100;SDS011;45978;53.646;55.930;2022-09-09T05:39:30;4.57;;;2.90;;
60100;SDS011;45978;53.646;55.930;2022-09-09T05:40:31;4.13;;;3.70;;
60100;SDS011;45978;53.646;55.930;2022-09-09T05:41:35;7.60;;;3.42;;
60100;SDS011;45978;53.646;55.930;2022-09-09T05:42:37;5.20;;;3.22;;
60100;SDS011;45978;53.646;55.930;2022-09-09T05:43:41;4.13;;;3.45;;
60100;SDS011;45978;53.646;55.930;2022-09-09T05:44:46;5.53;;;3.90;;
60100;SDS011;45978;53.646;55.930;2022-09-09T05:45:47;5.20;;;3.55;;
60100;SDS011;45978;53.646;55.930;2022-09-09T05:46:49;6.38;;;3.95;;
60100;SDS011;45978;53.646;55.930;2022-09-09T05:47:51;8.18;;;4.32;;
60100;SDS011;45978;53.646;55.930;2022-09-09T05:48:55;4.90;;;3.45;;
60100;SDS011;45978;53.646;55.930;2022-09-09T05:50:03;8.68;;;3.80;;
60100;SDS011;45978;53.646;55.930;2022-09-09T05:51:07;4.32;;;3.83;;
60100;SDS011;45978;53.646;55.930;2022-09-09T05:52:13;5.57;;;4.25;;
60100;SDS011;45978;53.646;55.930;2022-09-09T05:53:15;6.55;;;3.55;;
60100;SDS011;45978;53.646;55.930;2022-09-09T05:54:17;5.53;;;3.95;;
60100;SDS011;45978;53.646;55.930;2022-09-09T05:55:24;4.03;;;3.67;;
60100;SDS011;45978;53.646;55.930;2022-09-09T05:56:27;4.38;;;3.97;;
60100;SDS011;45978;53.646;55.930;2022-09-09T05:57:30;6.03;;;3.90;;
60100;SDS011;45978;53.646;55.930;2022-09-09T05:58:33;5.05;;;4.00;;
60100;SDS011;45978;53.646;55.930;2022-09-09T05:59:39;4.68;;;4.25;;
60100;SDS011;45978;53.646;55.930;2022-09-09T06:00:40;4.22;;;3.83;;
60100;SDS011;45978;53.646;55.930;2022-09-09T06:01:42;4.85;;;3.83;;
60100;SDS011;45978;53.646;55.930;2022-09-09T06:03:09;3.88;;;3.58;;
60100;SDS011;45978;53.646;55.930;2022-09-09T06:04:12;6.40;;;4.38;;
60100;SDS011;45978;53.646;55.930;2022-09-09T06:05:14;5.45;;;4.10;;
60100;SDS011;45978;53.646;55.930;2022-09-09T06:06:17;5.47;;;4.57;;
60100;SDS011;45978;53.646;55.930;2022-09-09T06:07:22;4.57;;;3.90;;
60100;SDS011;45978;53.646;55.930;2022-09-09T06:08:24;5.45;;;4.13;;
60100;SDS011;45978;53.646;55.930;2022-09-09T06:09:28;8.30;;;4.03;;
60100;SDS011;45978;53.646;55.930;2022-09-09T06:10:31;5.70;;;4.15;;
60100;SDS011;45978;53.646;55.930;2022-09-09T06:11:32;4.72;;;3.88;;
60100;SDS011;45978;53.646;55.930;2022-09-09T06:12:37;5.03;;;4.00;;
60100;SDS011;45978;53.646;55.930;2022-09-09T06:13:39;4.93;;;4.43;;
60100;SDS011;45978;53.646;55.930;2022-09-09T06:14:41;6.80;;;3.83;;
60100;SDS011;45978;53.646;55.930;2022-09-09T06:15:53;4.35;;;3.85;;
60100;SDS011;45978;53.646;55.930;2022-09-09T06:17:01;4.88;;;4.47;;
60100;SDS011;45978;53.646;55.930;2022-09-09T06:18:04;5.80;;;4.25;;
60100;SDS011;45978;53.646;55.930;2022-09-09T06:19:06;4.40;;;3.92;;
60100;SDS011;45978;53.646;55.930;2022-09-09T06:20:08;9.32;;;4.05;;
60100;SDS011;45978;53.646;55.930;2022-09-09T06:21:17;4.43;;;3.72;;
60100;SDS011;45978;53.646;55.930;2022-09-09T06:23:22;4.25;;;3.90;;
60100;SDS011;45978;53.646;55.930;2022-09-09T06:25:43;4.18;;;3.85;;
60100;SDS011;45978;53.646;55.930;2022-09-09T06:26:45;11.20;;;4.47;;
60100;SDS011;45978;53.646;55.930;2022-09-09T06:27:54;9.43;;;4.65;;
60100;SDS011;45978;53.646;55.930;2022-09-09T06:28:55;5.22;;;4.72;;
60100;SDS011;45978;53.646;55.930;2022-09-09T06:29:59;4.97;;;4.57;;
60100;SDS011;45978;53.646;55.930;2022-09-09T06:31:00;6.07;;;4.50;;
60100;SDS011;45978;53.646;55.930;2022-09-09T06:32:04;4.72;;;4.20;;
60100;SDS011;45978;53.646;55.930;2022-09-09T06:33:06;7.38;;;3.88;;
60100;SDS011;45978;53.646;55.930;2022-09-09T06:34:08;7.25;;;3.97;;
60100;SDS011;45978;53.646;55.930;2022-09-09T06:35:12;6.93;;;4.30;;
60100;SDS011;45978;53.646;55.930;2022-09-09T06:36:15;5.07;;;3.92;;
60100;SDS011;45978;53.646;55.930;2022-09-09T06:37:19;4.50;;;3.70;;
60100;SDS011;45978;53.646;55.930;2022-09-09T06:38:24;6.45;;;3.83;;
60100;SDS011;45978;53.646;55.930;2022-09-09T06:39:25;6.00;;;3.70;;
60100;SDS011;45978;53.646;55.930;2022-09-09T06:40:27;5.88;;;3.33;;
60100;SDS011;45978;53.646;55.930;2022-09-09T06:41:29;8.50;;;3.90;;
60100;SDS011;45978;53.646;55.930;2022-09-09T06:42:33;3.53;;;3.22;;
60100;SDS011;45978;53.646;55.930;2022-09-09T06:43:53;4.63;;;3.05;;
60100;SDS011;45978;53.646;55.930;2022-09-09T06:45:03;5.75;;;3.28;;
60100;SDS011;45978;53.646;55.930;2022-09-09T06:46:14;4.63;;;3.25;;
60100;SDS011;45978;53.646;55.930;2022-09-09T06:47:17;6.80;;;3.53;;
60100;SDS011;45978;53.646;55.930;2022-09-09T06:48:18;4.30;;;3.13;;
60100;SDS011;45978;53.646;55.930;2022-09-09T06:49:20;5.18;;;3.47;;
60100;SDS011;45978;53.646;55.930;2022-09-09T06:50:22;3.17;;;2.88;;
60100;SDS011;45978;53.646;55.930;2022-09-09T06:51:27;3.25;;;2.70;;
60100;SDS011;45978;53.646;55.930;2022-09-09T06:52:31;3.13;;;2.83;;
60100;SDS011;45978;53.646;55.930;2022-09-09T06:53:34;3.92;;;2.85;;
60100;SDS011;45978;53.646;55.930;2022-09-09T06:54:37;2.97;;;2.60;;
60100;SDS011;45978;53.646;55.930;2022-09-09T06:55:43;3.17;;;2.90;;
60100;SDS011;45978;53.646;55.930;2022-09-09T06:56:47;4.65;;;3.38;;
60100;SDS011;45978;53.646;55.930;2022-09-09T06:57:56;3.13;;;2.90;;
60100;SDS011;45978;53.646;55.930;2022-09-09T06:58:59;2.80;;;2.60;;
60100;SDS011;45978;53.646;55.930;2022-09-09T07:00:05;4.93;;;3.10;;
60100;SDS011;45978;53.646;55.930;2022-09-09T07:01:07;7.57;;;3.65;;
60100;SDS011;45978;53.646;55.930;2022-09-09T07:02:09;5.18;;;2.83;;
60100;SDS011;45978;53.646;55.930;2022-09-09T07:03:10;5.90;;;3.30;;
60100;SDS011;45978;53.646;55.930;2022-09-09T07:04:11;4.00;;;2.67;;
60100;SDS011;45978;53.646;55.930;2022-09-09T07:05:16;5.20;;;2.90;;
60100;SDS011;45978;53.646;55.930;2022-09-09T07:06:24;3.80;;;2.50;;
60100;SDS011;45978;53.646;55.930;2022-09-09T07:07:27;6.15;;;2.72;;
60100;SDS011;45978;53.646;55.930;2022-09-09T07:08:30;3.60;;;2.50;;